sensor_id;sensor_type;location;lat;lon;timestamp;pressure;altitude;pressure_sealevel;temperature;humidity
57606;BME280;43430;48.204;11.556;2022-07-10T00:01:20;96453.50;;;17.34;68.40
57606;BME280;43430;48.204;11.556;2022-07-10T00:03:45;96456.59;;;17.21;69.82
57606;BME280;43430;48.204;11.556;2022-07-10T00:06:11;96456.97;;;17.07;69.13
57606;BME280;43430;48.204;11.556;2022-07-10T00:08:37;96460.25;;;16.93;71.26
57606;BME280;43430;48.204;11.556;2022-07-10T00:11:02;96457.38;;;16.94;72.69
57606;BME280;43430;48.204;11.556;2022-07-10T00:13:27;96459.47;;;16.70;75.29
57606;BME280;43430;48.204;11.556;2022-07-10T00:15:53;96462.50;;;16.57;74.88
57606;BME280;43430;48.204;11.556;2022-07-10T00:18:18;96459.34;;;16.60;76.47
57606;BME280;43430;48.204;11.556;2022-07-10T00:20:43;96460.13;;;16.60;76.54
57606;BME280;43430;48.204;11.556;2022-07-10T00:23:09;96467.81;;;16.57;76.85
57606;BME280;43430;48.204;11.556;2022-07-10T00:25:34;96475.09;;;16.45;76.78
57606;BME280;43430;48.204;11.556;2022-07-10T00:28:00;96477.56;;;16.29;76.88
57606;BME280;43430;48.204;11.556;2022-07-10T00:30:25;96483.22;;;16.33;77.80
57606;BME280;43430;48.204;11.556;2022-07-10T00:32:50;96491.63;;;16.25;78.04
57606;BME280;43430;48.204;11.556;2022-07-10T00:35:16;96493.13;;;16.21;78.00
57606;BME280;43430;48.204;11.556;2022-07-10T00:37:41;96497.78;;;16.08;78.87
57606;BME280;43430;48.204;11.556;2022-07-10T00:40:08;96504.63;;;16.04;79.00
57606;BME280;43430;48.204;11.556;2022-07-10T00:42:33;96497.28;;;16.11;79.17
57606;BME280;43430;48.204;11.556;2022-07-10T00:44:59;96496.16;;;16.07;79.89
57606;BME280;43430;48.204;11.556;2022-07-10T00:47:24;96500.16;;;16.10;80.68
57606;BME280;43430;48.204;11.556;2022-07-10T00:49:49;96491.81;;;16.01;80.38
57606;BME280;43430;48.204;11.556;2022-07-10T00:52:16;96484.91;;;15.83;81.98
57606;BME280;43430;48.204;11.556;2022-07-10T00:54:44;96483.03;;;15.84;83.16
57606;BME280;43430;48.204;11.556;2022-07-10T00:57:10;96480.84;;;15.81;84.61
57606;BME280;43430;48.204;11.556;2022-07-10T00:59:37;96482.56;;;15.58;86.16
57606;BME280;43430;48.204;11.556;2022-07-10T01:02:03;96488.34;;;15.22;87.26
57606;BME280;43430;48.204;11.556;2022-07-10T01:04:29;96499.69;;;15.34;88.09
57606;BME280;43430;48.204;11.556;2022-07-10T01:06:55;96485.38;;;15.06;90.90
57606;BME280;43430;48.204;11.556;2022-07-10T01:09:20;96480.00;;;15.01;91.90
57606;BME280;43430;48.204;11.556;2022-07-10T01:11:46;96482.94;;;14.88;93.52
57606;BME280;43430;48.204;11.556;2022-07-10T01:14:12;96476.50;;;14.72;94.29
57606;BME280;43430;48.204;11.556;2022-07-10T01:16:37;96465.47;;;14.63;95.49
57606;BME280;43430;48.204;11.556;2022-07-10T01:19:03;96468.34;;;14.62;98.93
57606;BME280;43430;48.204;11.556;2022-07-10T01:21:33;96471.94;;;14.56;100.00
57606;BME280;43430;48.204;11.556;2022-07-10T01:24:00;96471.13;;;14.43;99.91
57606;BME280;43430;48.204;11.556;2022-07-10T01:26:28;96463.75;;;14.45;100.00
57606;BME280;43430;48.204;11.556;2022-07-10T01:28:54;96456.94;;;14.49;100.00
57606;BME280;43430;48.204;11.556;2022-07-10T01:31:24;96459.16;;;14.53;100.00
57606;BME280;43430;48.204;11.556;2022-07-10T01:33:50;96458.09;;;14.54;100.00
57606;BME280;43430;48.204;11.556;2022-07-10T01:36:16;96454.19;;;14.56;100.00
57606;BME280;43430;48.204;11.556;2022-07-10T01:38:42;96447.47;;;14.54;100.00
57606;BME280;43430;48.204;11.556;2022-07-10T01:41:07;96445.38;;;14.44;100.00
57606;BME280;43430;48.204;11.556;2022-07-10T01:43:37;96447.34;;;14.48;100.00
57606;BME280;43430;48.204;11.556;2022-07-10T01:46:03;96431.41;;;14.48;100.00
57606;BME280;43430;48.204;11.556;2022-07-10T01:48:30;96438.59;;;14.60;100.00
57606;BME280;43430;48.204;11.556;2022-07-10T01:50:56;96440.47;;;14.76;100.00
57606;BME280;43430;48.204;11.556;2022-07-10T01:53:21;96434.00;;;14.84;100.00
57606;BME280;43430;48.204;11.556;2022-07-10T01:55:46;96430.28;;;14.85;100.00
57606;BME280;43430;48.204;11.556;2022-07-10T01:58:12;96430.88;;;14.87;100.00
57606;BME280;43430;48.204;11.556;2022-07-10T02:00:37;96433.09;;;14.78;100.00
57606;BME280;43430;48.204;11.556;2022-07-10T02:03:03;96431.28;;;14.67;100.00
57606;BME280;43430;48.204;11.556;2022-07-10T02:05:46;96427.25;;;14.64;100.00
57606;BME280;43430;48.204;11.556;2022-07-10T02:08:12;96423.66;;;14.70;100.00
57606;BME280;43430;48.204;11.556;2022-07-10T02:10:38;96420.44;;;14.68;100.00
57606;BME280;43430;48.204;11.556;2022-07-10T02:13:03;96421.00;;;14.70;100.00
57606;BME280;43430;48.204;11.556;2022-07-10T02:15:28;96422.06;;;14.69;100.00
57606;BME280;43430;48.204;11.556;2022-07-10T02:17:54;96423.75;;;14.76;100.00
57606;BME280;43430;48.204;11.556;2022-07-10T02:20:19;96423.66;;;14.70;100.00
57606;BME280;43430;48.204;11.556;2022-07-10T02:22:45;96425.72;;;14.68;100.00
57606;BME280;43430;48.204;11.556;2022-07-10T02:25:10;96422.53;;;14.66;100.00
57606;BME280;43430;48.204;11.556;2022-07-10T02:27:35;96418.34;;;14.70;100.00
57606;BME280;43430;48.204;11.556;2022-07-10T02:30:01;96426.06;;;14.72;100.00
57606;BME280;43430;48.204;11.556;2022-07-10T02:32:26;96422.59;;;14.71;100.00
57606;BME280;43430;48.204;11.556;2022-07-10T02:34:51;96425.25;;;14.71;100.00
57606;BME280;43430;48.204;11.556;2022-07-10T02:37:17;96424.59;;;14.64;100.00
57606;BME280;43430;48.204;11.556;2022-07-10T02:39:42;96429.16;;;14.52;100.00
57606;BME280;43430;48.204;11.556;2022-07-10T02:42:08;96431.31;;;14.43;100.00
57606;BME280;43430;48.204;11.556;2022-07-10T02:44:33;96419.31;;;14.41;100.00
57606;BME280;43430;48.204;11.556;2022-07-10T02:46:58;96426.72;;;14.39;100.00
57606;BME280;43430;48.204;11.556;2022-07-10T02:49:24;96425.00;;;14.33;100.00
57606;BME280;43430;48.204;11.556;2022-07-10T02:51:49;96432.84;;;14.28;100.00
57606;BME280;43430;48.204;11.556;2022-07-10T02:54:16;96426.97;;;14.25;100.00
57606;BME280;43430;48.204;11.556;2022-07-10T02:56:41;96429.50;;;14.20;100.00
57606;BME280;43430;48.204;11.556;2022-07-10T02:59:07;96427.66;;;14.21;100.00
57606;BME280;43430;48.204;11.556;2022-07-10T03:01:32;96422.81;;;14.30;100.00
57606;BME280;43430;48.204;11.556;2022-07-10T03:03:58;96423.50;;;14.37;100.00
57606;BME280;43430;48.204;11.556;2022-07-10T03:06:23;96428.47;;;14.33;100.00
57606;BME280;43430;48.204;11.556;2022-07-10T03:08:49;96433.31;;;14.24;100.00
57606;BME280;43430;48.204;11.556;2022-07-10T03:11:14;96432.16;;;14.20;100.00
57606;BME280;43430;48.204;11.556;2022-07-10T03:13:40;96424.88;;;14.28;100.00
57606;BME280;43430;48.204;11.556;2022-07-10T03:16:05;96423.53;;;14.25;100.00
57606;BME280;43430;48.204;11.556;2022-07-10T03:18:31;96415.22;;;14.21;100.00
57606;BME280;43430;48.204;11.556;2022-07-10T03:20:56;96418.22;;;14.25;100.00
57606;BME280;43430;48.204;11.556;2022-07-10T03:23:21;96415.78;;;14.23;100.00
57606;BME280;43430;48.204;11.556;2022-07-10T03:25:47;96417.09;;;14.09;100.00
57606;BME280;43430;48.204;11.556;2022-07-10T03:28:12;96427.81;;;14.02;100.00
57606;BME280;43430;48.204;11.556;2022-07-10T03:30:38;96427.38;;;13.94;100.00
57606;BME280;43430;48.204;11.556;2022-07-10T03:33:03;96432.19;;;13.97;100.00
57606;BME280;43430;48.204;11.556;2022-07-10T03:35:29;96426.66;;;13.98;100.00
57606;BME280;43430;48.204;11.556;2022-07-10T03:37:56;96425.16;;;14.02;100.00
57606;BME280;43430;48.204;11.556;2022-07-10T03:40:22;96427.94;;;14.08;100.00
57606;BME280;43430;48.204;11.556;2022-07-10T03:42:47;96436.00;;;14.13;100.00
57606;BME280;43430;48.204;11.556;2022-07-10T03:45:13;96427.22;;;14.12;100.00
57606;BME280;43430;48.204;11.556;2022-07-10T03:47:38;96431.84;;;14.05;100.00
57606;BME280;43430;48.204;11.556;2022-07-10T03:50:04;96435.66;;;14.09;100.00
57606;BME280;43430;48.204;11.556;2022-07-10T03:52:30;96432.28;;;14.14;100.00
57606;BME280;43430;48.204;11.556;2022-07-10T03:54:55;96426.19;;;14.13;100.00
57606;BME280;43430;48.204;11.556;2022-07-10T03:57:20;96436.22;;;13.99;100.00
57606;BME280;43430;48.204;11.556;2022-07-10T04:00:05;96426.66;;;13.98;100.00
57606;BME280;43430;48.204;11.556;2022-07-10T04:02:30;96431.16;;;13.98;100.00
57606;BME280;43430;48.204;11.556;2022-07-10T04:04:55;96431.06;;;14.05;100.00
57606;BME280;43430;48.204;11.556;2022-07-10T04:07:21;96432.78;;;13.99;100.00
57606;BME280;43430;48.204;11.556;2022-07-10T04:09:46;96428.63;;;14.03;100.00
57606;BME280;43430;48.204;11.556;2022-07-10T04:12:11;96426.31;;;14.18;100.00
57606;BME280;43430;48.204;11.556;2022-07-10T04:14:37;96422.94;;;14.23;100.00
57606;BME280;43430;48.204;11.556;2022-07-10T04:17:02;96434.00;;;14.20;100.00
57606;BME280;43430;48.204;11.556;2022-07-10T04:19:28;96428.59;;;14.27;100.00
57606;BME280;43430;48.204;11.556;2022-07-10T04:21:53;96420.03;;;14.36;100.00
57606;BME280;43430;48.204;11.556;2022-07-10T04:24:18;96417.59;;;14.35;100.00
57606;BME280;43430;48.204;11.556;2022-07-10T04:26:44;96419.72;;;14.21;100.00
57606;BME280;43430;48.204;11.556;2022-07-10T04:29:09;96426.53;;;14.29;100.00
57606;BME280;43430;48.204;11.556;2022-07-10T04:31:35;96427.66;;;14.33;100.00
57606;BME280;43430;48.204;11.556;2022-07-10T04:34:00;96425.56;;;14.35;100.00
57606;BME280;43430;48.204;11.556;2022-07-10T04:36:25;96431.22;;;14.38;100.00
57606;BME280;43430;48.204;11.556;2022-07-10T04:38:51;96423.59;;;14.42;100.00
57606;BME280;43430;48.204;11.556;2022-07-10T04:41:16;96428.56;;;14.50;100.00
57606;BME280;43430;48.204;11.556;2022-07-10T04:43:41;96425.59;;;14.23;100.00
57606;BME280;43430;48.204;11.556;2022-07-10T04:46:07;96430.31;;;14.33;100.00
57606;BME280;43430;48.204;11.556;2022-07-10T04:48:32;96431.38;;;14.32;100.00
57606;BME280;43430;48.204;11.556;2022-07-10T04:50:58;96434.91;;;14.49;100.00
57606;BME280;43430;48.204;11.556;2022-07-10T04:53:23;96432.81;;;14.51;100.00
57606;BME280;43430;48.204;11.556;2022-07-10T04:55:48;96442.75;;;14.44;100.00
57606;BME280;43430;48.204;11.556;2022-07-10T04:58:14;96440.47;;;14.36;100.00
57606;BME280;43430;48.204;11.556;2022-07-10T05:00:40;96442.78;;;14.20;100.00
57606;BME280;43430;48.204;11.556;2022-07-10T05:03:05;96437.97;;;14.06;100.00
57606;BME280;43430;48.204;11.556;2022-07-10T05:05:30;96453.28;;;14.15;100.00
57606;BME280;43430;48.204;11.556;2022-07-10T05:07:56;96460.53;;;14.20;100.00
57606;BME280;43430;48.204;11.556;2022-07-10T05:10:21;96455.44;;;14.30;100.00
57606;BME280;43430;48.204;11.556;2022-07-10T05:12:47;96460.44;;;14.15;100.00
57606;BME280;43430;48.204;11.556;2022-07-10T05:15:12;96462.28;;;14.14;100.00
57606;BME280;43430;48.204;11.556;2022-07-10T05:17:38;96458.47;;;14.22;100.00
57606;BME280;43430;48.204;11.556;2022-07-10T05:20:03;96458.13;;;14.18;100.00
57606;BME280;43430;48.204;11.556;2022-07-10T05:22:29;96462.72;;;14.23;100.00
57606;BME280;43430;48.204;11.556;2022-07-10T05:24:56;96465.97;;;14.25;100.00
57606;BME280;43430;48.204;11.556;2022-07-10T05:27:21;96465.41;;;14.11;99.77
57606;BME280;43430;48.204;11.556;2022-07-10T05:29:47;96463.44;;;14.18;99.54
57606;BME280;43430;48.204;11.556;2022-07-10T05:32:13;96470.56;;;14.30;98.22
57606;BME280;43430;48.204;11.556;2022-07-10T05:34:38;96467.53;;;14.38;97.93
57606;BME280;43430;48.204;11.556;2022-07-10T05:37:04;96467.09;;;14.17;98.70
57606;BME280;43430;48.204;11.556;2022-07-10T05:39:30;96470.94;;;14.21;96.94
57606;BME280;43430;48.204;11.556;2022-07-10T05:41:55;96468.50;;;14.32;96.30
57606;BME280;43430;48.204;11.556;2022-07-10T05:44:23;96467.91;;;14.30;97.08
57606;BME280;43430;48.204;11.556;2022-07-10T05:46:48;96471.81;;;14.27;97.45
57606;BME280;43430;48.204;11.556;2022-07-10T05:49:13;96467.00;;;14.24;96.46
57606;BME280;43430;48.204;11.556;2022-07-10T05:51:39;96463.19;;;14.32;95.80
57606;BME280;43430;48.204;11.556;2022-07-10T05:54:04;96462.03;;;14.39;96.21
57606;BME280;43430;48.204;11.556;2022-07-10T05:56:30;96465.72;;;14.27;95.84
57606;BME280;43430;48.204;11.556;2022-07-10T05:58:55;96468.97;;;14.29;95.03
57606;BME280;43430;48.204;11.556;2022-07-10T06:01:22;96467.91;;;14.30;94.79
57606;BME280;43430;48.204;11.556;2022-07-10T06:03:47;96462.38;;;14.31;95.68
57606;BME280;43430;48.204;11.556;2022-07-10T06:06:13;96462.03;;;14.28;96.65
57606;BME280;43430;48.204;11.556;2022-07-10T06:08:42;96463.41;;;14.42;96.95
57606;BME280;43430;48.204;11.556;2022-07-10T06:11:08;96461.66;;;14.47;96.64
57606;BME280;43430;48.204;11.556;2022-07-10T06:13:33;96459.94;;;14.53;95.21
57606;BME280;43430;48.204;11.556;2022-07-10T06:15:58;96468.78;;;14.59;94.17
57606;BME280;43430;48.204;11.556;2022-07-10T06:18:24;96466.88;;;14.42;94.88
57606;BME280;43430;48.204;11.556;2022-07-10T06:20:49;96470.66;;;14.35;95.01
57606;BME280;43430;48.204;11.556;2022-07-10T06:23:15;96477.38;;;14.14;95.06
57606;BME280;43430;48.204;11.556;2022-07-10T06:25:40;96472.66;;;14.04;96.46
57606;BME280;43430;48.204;11.556;2022-07-10T06:28:05;96477.63;;;14.00;97.03
57606;BME280;43430;48.204;11.556;2022-07-10T06:30:31;96474.97;;;14.12;97.52
57606;BME280;43430;48.204;11.556;2022-07-10T06:32:56;96474.59;;;14.20;95.79
57606;BME280;43430;48.204;11.556;2022-07-10T06:35:21;96473.22;;;14.30;95.49
57606;BME280;43430;48.204;11.556;2022-07-10T06:37:47;96475.78;;;14.01;95.57
57606;BME280;43430;48.204;11.556;2022-07-10T06:40:13;96473.25;;;14.18;96.19
57606;BME280;43430;48.204;11.556;2022-07-10T06:42:41;96476.56;;;14.25;95.27
57606;BME280;43430;48.204;11.556;2022-07-10T06:45:07;96473.69;;;14.27;94.36
57606;BME280;43430;48.204;11.556;2022-07-10T06:47:33;96486.03;;;14.33;94.50
57606;BME280;43430;48.204;11.556;2022-07-10T06:50:17;96478.78;;;14.05;96.78
57606;BME280;43430;48.204;11.556;2022-07-10T06:52:42;96468.50;;;13.96;94.34
57606;BME280;43430;48.204;11.556;2022-07-10T06:55:08;96467.94;;;14.18;95.19
57606;BME280;43430;48.204;11.556;2022-07-10T06:57:34;96473.69;;;14.38;92.97
57606;BME280;43430;48.204;11.556;2022-07-10T07:00:00;96467.53;;;14.38;93.47
57606;BME280;43430;48.204;11.556;2022-07-10T07:02:26;96480.84;;;14.26;93.09
57606;BME280;43430;48.204;11.556;2022-07-10T07:04:51;96475.97;;;14.35;92.50
57606;BME280;43430;48.204;11.556;2022-07-10T07:07:17;96480.72;;;14.33;91.99
57606;BME280;43430;48.204;11.556;2022-07-10T07:09:42;96473.81;;;14.32;94.03
57606;BME280;43430;48.204;11.556;2022-07-10T07:12:09;96475.28;;;14.39;92.91
57606;BME280;43430;48.204;11.556;2022-07-10T07:14:35;96481.97;;;14.42;92.93
57606;BME280;43430;48.204;11.556;2022-07-10T07:17:01;96487.50;;;14.40;92.73
57606;BME280;43430;48.204;11.556;2022-07-10T07:19:32;96486.94;;;14.50;93.57
57606;BME280;43430;48.204;11.556;2022-07-10T07:22:18;96486.31;;;14.83;92.04
57606;BME280;43430;48.204;11.556;2022-07-10T07:25:02;96494.69;;;15.20;91.05
57606;BME280;43430;48.204;11.556;2022-07-10T07:27:27;96495.25;;;15.23;86.42
57606;BME280;43430;48.204;11.556;2022-07-10T07:29:52;96490.03;;;15.28;87.07
57606;BME280;43430;48.204;11.556;2022-07-10T07:32:18;96493.03;;;15.48;85.68
57606;BME280;43430;48.204;11.556;2022-07-10T07:34:43;96481.63;;;15.64;85.82
57606;BME280;43430;48.204;11.556;2022-07-10T07:37:08;96490.38;;;15.77;83.29
57606;BME280;43430;48.204;11.556;2022-07-10T07:39:34;96490.91;;;15.79;83.03
57606;BME280;43430;48.204;11.556;2022-07-10T07:41:59;96495.63;;;15.43;84.35
57606;BME280;43430;48.204;11.556;2022-07-10T07:44:25;96499.69;;;15.34;84.58
57606;BME280;43430;48.204;11.556;2022-07-10T07:46:50;96502.25;;;15.57;82.62
57606;BME280;43430;48.204;11.556;2022-07-10T07:49:15;96497.44;;;15.88;81.77
57606;BME280;43430;48.204;11.556;2022-07-10T07:51:41;96497.66;;;15.53;82.20
57606;BME280;43430;48.204;11.556;2022-07-10T07:54:06;96502.88;;;15.48;83.71
57606;BME280;43430;48.204;11.556;2022-07-10T07:56:31;96501.97;;;15.71;83.65
57606;BME280;43430;48.204;11.556;2022-07-10T07:58:57;96497.63;;;15.98;82.47
57606;BME280;43430;48.204;11.556;2022-07-10T08:01:23;96497.03;;;15.79;78.26
57606;BME280;43430;48.204;11.556;2022-07-10T08:03:51;96487.28;;;15.85;77.77
57606;BME280;43430;48.204;11.556;2022-07-10T08:06:17;96494.38;;;16.13;76.71
57606;BME280;43430;48.204;11.556;2022-07-10T08:08:43;96498.84;;;16.46;76.83
57606;BME280;43430;48.204;11.556;2022-07-10T08:11:09;96498.38;;;16.32;75.29
57606;BME280;43430;48.204;11.556;2022-07-10T08:13:34;96495.22;;;15.97;76.10
57606;BME280;43430;48.204;11.556;2022-07-10T08:16:00;96502.91;;;16.15;75.41
57606;BME280;43430;48.204;11.556;2022-07-10T08:18:25;96502.13;;;15.98;72.49
57606;BME280;43430;48.204;11.556;2022-07-10T08:20:51;96493.13;;;16.21;72.86
57606;BME280;43430;48.204;11.556;2022-07-10T08:23:16;96498.03;;;16.46;72.00
57606;BME280;43430;48.204;11.556;2022-07-10T08:25:41;96494.38;;;16.52;72.90
57606;BME280;43430;48.204;11.556;2022-07-10T08:28:07;96496.34;;;16.40;71.75
57606;BME280;43430;48.204;11.556;2022-07-10T08:30:33;96496.28;;;16.34;72.05
57606;BME280;43430;48.204;11.556;2022-07-10T08:32:58;96498.00;;;16.63;72.40
57606;BME280;43430;48.204;11.556;2022-07-10T08:35:24;96481.69;;;17.03;70.85
57606;BME280;43430;48.204;11.556;2022-07-10T08:37:49;96477.69;;;17.00;69.86
57606;BME280;43430;48.204;11.556;2022-07-10T08:40:16;96475.97;;;16.50;69.96
57606;BME280;43430;48.204;11.556;2022-07-10T08:42:42;96494.56;;;16.45;71.01
57606;BME280;43430;48.204;11.556;2022-07-10T08:45:10;96493.41;;;15.69;72.72
57606;BME280;43430;48.204;11.556;2022-07-10T08:47:37;96496.25;;;15.33;72.79
57606;BME280;43430;48.204;11.556;2022-07-10T08:50:04;96506.22;;;15.26;72.80
57606;BME280;43430;48.204;11.556;2022-07-10T08:52:58;96498.00;;;15.28;74.16
57606;BME280;43430;48.204;11.556;2022-07-10T08:55:25;96493.34;;;15.80;72.23
57606;BME280;43430;48.204;11.556;2022-07-10T08:57:51;96478.22;;;16.20;70.86
57606;BME280;43430;48.204;11.556;2022-07-10T09:00:17;96497.09;;;16.35;70.08
57606;BME280;43430;48.204;11.556;2022-07-10T09:02:43;96494.72;;;15.83;69.34
57606;BME280;43430;48.204;11.556;2022-07-10T09:05:08;96500.63;;;15.56;69.96
57606;BME280;43430;48.204;11.556;2022-07-10T09:07:37;96490.75;;;15.69;70.08
57606;BME280;43430;48.204;11.556;2022-07-10T09:10:08;96487.03;;;16.03;68.60
57606;BME280;43430;48.204;11.556;2022-07-10T09:12:50;96488.09;;;16.41;66.69
57606;BME280;43430;48.204;11.556;2022-07-10T09:15:17;96478.41;;;16.74;67.42
57606;BME280;43430;48.204;11.556;2022-07-10T09:20:37;96481.16;;;16.79;62.23
57606;BME280;43430;48.204;11.556;2022-07-10T09:23:23;96487.47;;;16.73;60.63
57606;BME280;43430;48.204;11.556;2022-07-10T09:25:51;96480.63;;;16.77;61.09
57606;BME280;43430;48.204;11.556;2022-07-10T09:28:19;96470.31;;;17.07;61.26
57606;BME280;43430;48.204;11.556;2022-07-10T09:30:45;96479.97;;;16.70;61.89
57606;BME280;43430;48.204;11.556;2022-07-10T09:33:18;96490.09;;;16.51;62.25
57606;BME280;43430;48.204;11.556;2022-07-10T09:36:14;96482.25;;;16.61;61.39
57606;BME280;43430;48.204;11.556;2022-07-10T09:41:20;96492.22;;;16.93;59.53
57606;BME280;43430;48.204;11.556;2022-07-10T09:46:21;96483.38;;;17.09;58.97
57606;BME280;43430;48.204;11.556;2022-07-10T09:48:47;96475.31;;;17.04;59.36
57606;BME280;43430;48.204;11.556;2022-07-10T09:51:13;96472.63;;;17.26;59.62
57606;BME280;43430;48.204;11.556;2022-07-10T09:53:43;96471.25;;;17.23;60.81
57606;BME280;43430;48.204;11.556;2022-07-10T09:56:12;96463.81;;;17.52;56.11
57606;BME280;43430;48.204;11.556;2022-07-10T09:58:39;96467.25;;;17.80;56.71
57606;BME280;43430;48.204;11.556;2022-07-10T10:01:07;96464.06;;;18.20;53.59
57606;BME280;43430;48.204;11.556;2022-07-10T10:03:37;96461.28;;;18.05;53.17
57606;BME280;43430;48.204;11.556;2022-07-10T10:06:14;96470.50;;;17.55;55.15
57606;BME280;43430;48.204;11.556;2022-07-10T10:11:08;96474.88;;;17.12;56.69
57606;BME280;43430;48.204;11.556;2022-07-10T10:13:35;96461.25;;;17.36;56.67
57606;BME280;43430;48.204;11.556;2022-07-10T10:16:01;96457.47;;;17.59;56.12
57606;BME280;43430;48.204;11.556;2022-07-10T10:18:27;96459.34;;;17.95;53.48
57606;BME280;43430;48.204;11.556;2022-07-10T10:20:55;96458.41;;;18.17;52.91
57606;BME280;43430;48.204;11.556;2022-07-10T10:23:22;96447.84;;;18.37;51.64
57606;BME280;43430;48.204;11.556;2022-07-10T10:25:49;96450.66;;;18.68;51.38
57606;BME280;43430;48.204;11.556;2022-07-10T10:28:16;96457.72;;;18.37;51.77
57606;BME280;43430;48.204;11.556;2022-07-10T10:30:44;96460.34;;;17.84;53.93
57606;BME280;43430;48.204;11.556;2022-07-10T10:35:58;96459.38;;;17.68;53.15
57606;BME280;43430;48.204;11.556;2022-07-10T10:38:23;96455.91;;;17.68;54.56
57606;BME280;43430;48.204;11.556;2022-07-10T10:40:49;96457.69;;;17.89;55.23
57606;BME280;43430;48.204;11.556;2022-07-10T10:43:22;96447.66;;;18.01;51.02
57606;BME280;43430;48.204;11.556;2022-07-10T10:45:49;96443.34;;;18.38;51.47
57606;BME280;43430;48.204;11.556;2022-07-10T10:48:16;96451.25;;;18.75;50.94
57606;BME280;43430;48.204;11.556;2022-07-10T10:50:45;96435.25;;;18.85;48.76
57606;BME280;43430;48.204;11.556;2022-07-10T10:53:22;96446.97;;;18.74;48.95
57606;BME280;43430;48.204;11.556;2022-07-10T10:58:27;96451.28;;;18.27;49.59
57606;BME280;43430;48.204;11.556;2022-07-10T11:01:02;96448.69;;;18.38;49.67
57606;BME280;43430;48.204;11.556;2022-07-10T11:03:28;96447.44;;;18.61;50.45
57606;BME280;43430;48.204;11.556;2022-07-10T11:05:53;96445.03;;;18.59;49.33
57606;BME280;43430;48.204;11.556;2022-07-10T11:08:39;96446.38;;;18.62;50.24
57606;BME280;43430;48.204;11.556;2022-07-10T11:13:57;96446.44;;;17.77;52.21
57606;BME280;43430;48.204;11.556;2022-07-10T11:16:22;96441.31;;;18.13;51.38
57606;BME280;43430;48.204;11.556;2022-07-10T11:18:52;96438.81;;;18.38;50.26
57606;BME280;43430;48.204;11.556;2022-07-10T11:21:24;96438.91;;;18.59;47.24
57606;BME280;43430;48.204;11.556;2022-07-10T11:24:06;96432.47;;;18.60;47.30
57606;BME280;43430;48.204;11.556;2022-07-10T11:26:42;96440.63;;;18.33;49.36
57606;BME280;43430;48.204;11.556;2022-07-10T11:29:17;96439.88;;;17.95;50.86
57606;BME280;43430;48.204;11.556;2022-07-10T11:31:52;96448.75;;;18.06;51.60
57606;BME280;43430;48.204;11.556;2022-07-10T11:34:17;96446.94;;;18.16;50.87
57606;BME280;43430;48.204;11.556;2022-07-10T11:36:43;96437.41;;;17.83;51.92
57606;BME280;43430;48.204;11.556;2022-07-10T11:39:09;96432.84;;;18.21;50.77
57606;BME280;43430;48.204;11.556;2022-07-10T11:41:44;96440.97;;;18.46;48.81
57606;BME280;43430;48.204;11.556;2022-07-10T11:44:15;96449.03;;;18.57;48.51
57606;BME280;43430;48.204;11.556;2022-07-10T11:46:41;96433.13;;;18.24;47.93
57606;BME280;43430;48.204;11.556;2022-07-10T11:49:09;96433.63;;;18.21;47.89
57606;BME280;43430;48.204;11.556;2022-07-10T11:51:38;96439.31;;;18.35;47.58
57606;BME280;43430;48.204;11.556;2022-07-10T11:54:09;96432.44;;;18.55;46.78
57606;BME280;43430;48.204;11.556;2022-07-10T11:56:38;96430.88;;;18.59;47.02
57606;BME280;43430;48.204;11.556;2022-07-10T11:59:09;96428.63;;;19.08;47.02
57606;BME280;43430;48.204;11.556;2022-07-10T12:04:06;96429.34;;;18.73;46.82
57606;BME280;43430;48.204;11.556;2022-07-10T12:06:38;96429.84;;;18.70;47.92
57606;BME280;43430;48.204;11.556;2022-07-10T12:09:05;96427.75;;;18.77;48.47
57606;BME280;43430;48.204;11.556;2022-07-10T12:11:31;96430.72;;;18.81;46.28
57606;BME280;43430;48.204;11.556;2022-07-10T12:14:13;96430.91;;;18.69;47.70
57606;BME280;43430;48.204;11.556;2022-07-10T12:16:41;96438.72;;;18.76;47.92
57606;BME280;43430;48.204;11.556;2022-07-10T12:19:08;96431.50;;;18.81;47.67
57606;BME280;43430;48.204;11.556;2022-07-10T12:21:34;96423.81;;;19.05;46.68
57606;BME280;43430;48.204;11.556;2022-07-10T12:24:00;96430.25;;;19.14;47.12
57606;BME280;43430;48.204;11.556;2022-07-10T12:26:37;96422.25;;;19.50;46.56
57606;BME280;43430;48.204;11.556;2022-07-10T12:29:03;96418.78;;;19.29;45.99
57606;BME280;43430;48.204;11.556;2022-07-10T12:31:31;96425.22;;;19.49;46.03
57606;BME280;43430;48.204;11.556;2022-07-10T12:34:04;96430.50;;;18.97;44.94
57606;BME280;43430;48.204;11.556;2022-07-10T12:36:49;96430.50;;;19.08;45.48
57606;BME280;43430;48.204;11.556;2022-07-10T12:39:20;96438.25;;;19.09;45.95
57606;BME280;43430;48.204;11.556;2022-07-10T12:47:06;96426.50;;;19.15;44.58
57606;BME280;43430;48.204;11.556;2022-07-10T12:49:54;96422.78;;;19.27;45.44
57606;BME280;43430;48.204;11.556;2022-07-10T12:52:24;96433.16;;;19.03;44.61
57606;BME280;43430;48.204;11.556;2022-07-10T12:55:10;96433.75;;;19.10;44.97
57606;BME280;43430;48.204;11.556;2022-07-10T12:57:59;96437.44;;;18.98;45.14
57606;BME280;43430;48.204;11.556;2022-07-10T13:00:31;96441.19;;;19.03;45.74
57606;BME280;43430;48.204;11.556;2022-07-10T13:02:59;96434.00;;;19.13;45.29
57606;BME280;43430;48.204;11.556;2022-07-10T13:05:45;96436.41;;;19.15;45.39
57606;BME280;43430;48.204;11.556;2022-07-10T13:08:15;96448.16;;;19.09;43.94
57606;BME280;43430;48.204;11.556;2022-07-10T13:10:43;96435.13;;;19.48;43.97
57606;BME280;43430;48.204;11.556;2022-07-10T13:13:09;96434.88;;;19.70;43.50
57606;BME280;43430;48.204;11.556;2022-07-10T13:15:36;96441.56;;;19.73;44.04